createdAt,value
2022-09-22T00:01:37.867Z,10.76
2022-09-22T00:04:23.060Z,10.68
2022-09-22T00:07:08.399Z,10.63
2022-09-22T00:09:53.717Z,10.57
2022-09-22T00:12:39.007Z,10.47
2022-09-22T00:15:24.456Z,10.41
2022-09-22T00:18:09.398Z,10.39
2022-09-22T00:20:55.048Z,10.35
2022-09-22T00:23:41.286Z,10.32
2022-09-22T00:26:26.387Z,10.33
2022-09-22T00:29:12.525Z,10.33
2022-09-22T00:31:59.575Z,10.35
2022-09-22T00:34:46.376Z,10.33
2022-09-22T00:37:31.923Z,10.28
2022-09-22T00:40:18.199Z,10.25
2022-09-22T00:43:19.101Z,10.25
2022-09-22T00:46:30.707Z,10.25
2022-09-22T00:49:15.868Z,10.24
2022-09-22T00:52:01.464Z,10.25
2022-09-22T00:54:48.470Z,10.20
2022-09-22T00:57:36.758Z,10.12
2022-09-22T01:00:22.515Z,10.06
2022-09-22T01:03:11.451Z,10.02
2022-09-22T01:06:04.941Z,9.98
2022-09-22T01:08:50.761Z,9.94
2022-09-22T01:11:38.789Z,9.95
2022-09-22T01:14:55.315Z,9.91
2022-09-22T01:18:08.503Z,9.86
2022-09-22T01:21:46.384Z,9.82
2022-09-22T01:24:40.666Z,9.79
2022-09-22T01:27:40.482Z,9.77
2022-09-22T01:30:35.556Z,9.72
2022-09-22T01:33:26.943Z,9.68
2022-09-22T01:36:11.977Z,9.62
2022-09-22T01:39:21.050Z,9.61
2022-09-22T01:42:26.869Z,9.59
2022-09-22T01:45:20.702Z,9.58
2022-09-22T01:48:13.031Z,9.53
2022-09-22T01:51:23.761Z,9.51
2022-09-22T01:54:17.442Z,9.49
2022-09-22T01:57:14.298Z,9.47
2022-09-22T02:00:04.494Z,9.44
2022-09-22T02:03:21.244Z,9.39
2022-09-22T02:06:14.220Z,9.37
2022-09-22T02:09:07.258Z,9.33
2022-09-22T02:11:52.985Z,9.28
2022-09-22T02:14:38.430Z,9.23
2022-09-22T02:17:26.453Z,9.19
2022-09-22T02:20:11.802Z,9.20
2022-09-22T02:22:57.665Z,9.20
2022-09-22T02:25:45.088Z,9.19
2022-09-22T02:28:33.234Z,9.20
2022-09-22T02:31:20.983Z,9.18
2022-09-22T02:34:06.979Z,9.17
2022-09-22T02:37:17.214Z,9.16
2022-09-22T02:40:30.471Z,9.17
2022-09-22T02:43:36.444Z,9.16
2022-09-22T02:46:32.069Z,9.16
2022-09-22T02:49:19.032Z,9.13
2022-09-22T02:52:10.532Z,9.12
2022-09-22T02:54:56.118Z,9.09
2022-09-22T02:57:41.295Z,9.06
2022-09-22T03:00:26.812Z,9.06
2022-09-22T03:03:12.567Z,9.03
2022-09-22T03:05:58.055Z,9.02
2022-09-22T03:08:43.502Z,8.97
2022-09-22T03:11:28.569Z,8.94
2022-09-22T03:14:14.112Z,8.90
2022-09-22T03:16:59.510Z,8.86
2022-09-22T03:19:44.651Z,8.83
2022-09-22T03:22:30.245Z,8.82
2022-09-22T03:25:15.435Z,8.80
2022-09-22T03:28:00.781Z,8.79
2022-09-22T03:30:45.965Z,8.81
2022-09-22T03:33:31.490Z,8.78
2022-09-22T03:36:16.659Z,8.75
2022-09-22T03:39:02.186Z,8.78
2022-09-22T03:41:47.263Z,8.73
2022-09-22T03:44:32.957Z,8.71
2022-09-22T03:47:19.245Z,8.69
2022-09-22T03:50:05.051Z,8.64
2022-09-22T03:52:49.994Z,8.62
2022-09-22T03:55:35.632Z,8.62
2022-09-22T03:58:21.596Z,8.61
2022-09-22T04:01:08.396Z,8.58
2022-09-22T04:03:53.976Z,8.57
2022-09-22T04:06:39.359Z,8.55
2022-09-22T04:09:24.551Z,8.51
2022-09-22T04:12:09.788Z,8.48
2022-09-22T04:14:54.910Z,8.52
2022-09-22T04:17:40.408Z,8.56
2022-09-22T04:20:25.995Z,8.56
2022-09-22T04:23:12.703Z,8.56
2022-09-22T04:25:57.790Z,8.55
2022-09-22T04:28:42.930Z,8.52
2022-09-22T04:31:28.474Z,8.54
2022-09-22T04:34:13.676Z,8.52
2022-09-22T04:36:59.136Z,8.49
2022-09-22T04:39:44.498Z,8.49
2022-09-22T04:42:29.842Z,8.48
2022-09-22T04:45:16.537Z,8.50
2022-09-22T04:48:02.346Z,8.51
2022-09-22T04:50:48.374Z,8.52
2022-09-22T04:53:33.914Z,8.52
2022-09-22T04:56:19.035Z,8.52
2022-09-22T04:59:04.573Z,8.55
2022-09-22T05:01:49.889Z,8.52
2022-09-22T05:04:35.720Z,8.56
2022-09-22T05:07:21.014Z,8.59
2022-09-22T05:10:06.801Z,8.61
2022-09-22T05:12:55.362Z,8.66
2022-09-22T05:15:41.610Z,8.69
2022-09-22T05:18:26.919Z,8.70
2022-09-22T05:21:13.054Z,8.71
2022-09-22T05:23:58.254Z,8.75
2022-09-22T05:26:43.675Z,8.79
2022-09-22T05:29:29.578Z,8.85
2022-09-22T05:32:15.135Z,8.87
2022-09-22T05:35:00.441Z,8.92
2022-09-22T05:37:47.447Z,8.96
2022-09-22T05:40:32.722Z,8.98
2022-09-22T05:43:18.316Z,9.03
2022-09-22T05:46:03.933Z,9.11
2022-09-22T05:48:49.375Z,9.16
2022-09-22T05:51:34.858Z,9.23
2022-09-22T05:54:23.373Z,9.31
2022-09-22T05:57:08.586Z,9.38
2022-09-22T05:59:54.800Z,9.47
2022-09-22T06:02:40.557Z,9.57
2022-09-22T06:05:26.124Z,9.68
2022-09-22T06:08:11.786Z,9.80
2022-09-22T06:10:57.163Z,9.89
2022-09-22T06:13:42.294Z,9.96
2022-09-22T06:16:27.568Z,10.05
2022-09-22T06:19:12.621Z,10.16
2022-09-22T06:21:58.083Z,10.24
2022-09-22T06:24:44.119Z,10.32
2022-09-22T06:27:29.384Z,10.41
2022-09-22T06:30:15.002Z,10.56
2022-09-22T06:33:00.261Z,10.71
2022-09-22T06:35:46.195Z,10.84
2022-09-22T06:38:31.906Z,10.98
2022-09-22T06:41:17.033Z,11.11
2022-09-22T06:44:03.088Z,11.22
2022-09-22T06:46:48.328Z,11.35
2022-09-22T06:49:33.748Z,11.47
2022-09-22T06:52:18.912Z,11.57
2022-09-22T06:55:05.304Z,11.67
2022-09-22T06:57:51.910Z,11.76
2022-09-22T07:00:37.740Z,11.86
2022-09-22T07:03:26.262Z,12.16
2022-09-22T07:06:20.168Z,12.48
2022-09-22T07:09:07.060Z,12.58
2022-09-22T07:11:52.363Z,13.01
2022-09-22T07:14:37.866Z,13.37
2022-09-22T07:17:23.702Z,13.76
2022-09-22T07:20:08.898Z,14.09
2022-09-22T07:23:00.713Z,13.97
2022-09-22T07:26:00.865Z,13.74
2022-09-22T07:28:50.281Z,13.54
2022-09-22T07:31:36.675Z,13.46
2022-09-22T07:34:22.250Z,13.39
2022-09-22T07:37:07.903Z,13.37
2022-09-22T07:39:53.240Z,13.25
2022-09-22T07:42:38.471Z,13.20
2022-09-22T07:45:24.034Z,13.26
2022-09-22T07:48:27.732Z,13.36
2022-09-22T07:51:19.765Z,13.47
2022-09-22T07:54:08.186Z,13.48
2022-09-22T07:56:56.374Z,13.46
2022-09-22T07:59:42.030Z,13.46
2022-09-22T08:02:28.682Z,13.55
2022-09-22T08:05:16.406Z,13.63
2022-09-22T08:08:02.517Z,13.60
2022-09-22T08:10:48.960Z,13.61
2022-09-22T08:13:37.351Z,13.82
2022-09-22T08:16:24.130Z,13.95
2022-09-22T08:19:12.581Z,14.10
2022-09-22T08:21:57.705Z,14.29
2022-09-22T08:24:45.561Z,14.39
2022-09-22T08:27:31.285Z,14.42
2022-09-22T08:30:21.900Z,14.56
2022-09-22T08:33:07.710Z,14.74
2022-09-22T08:35:54.931Z,14.87
2022-09-22T08:38:40.778Z,14.46
2022-09-22T08:41:31.751Z,14.53
2022-09-22T08:44:22.972Z,14.65
2022-09-22T08:47:16.705Z,14.60
2022-09-22T08:50:22.852Z,14.48
2022-09-22T08:53:14.263Z,14.56
2022-09-22T08:56:30.318Z,14.68
2022-09-22T08:59:22.835Z,14.89
2022-09-22T09:02:21.320Z,14.96
2022-09-22T09:05:43.492Z,15.09
2022-09-22T09:09:06.651Z,15.27
2022-09-22T09:12:10.830Z,15.57
2022-09-22T09:15:28.517Z,15.82
2022-09-22T09:18:19.756Z,16.03
2022-09-22T09:21:13.518Z,16.16
2022-09-22T09:27:15.462Z,16.19
2022-09-22T09:30:12.139Z,16.05
2022-09-22T09:33:01.047Z,16.22
2022-09-22T09:35:53.273Z,16.31
2022-09-22T09:38:49.030Z,16.13
2022-09-22T09:41:35.371Z,16.44
2022-09-22T09:44:32.994Z,16.63
2022-09-22T09:48:16.597Z,16.92
2022-09-22T09:51:05.504Z,16.76
2022-09-22T09:53:52.602Z,16.96
2022-09-22T09:56:57.812Z,17.07
2022-09-22T10:00:06.684Z,17.49
2022-09-22T10:03:19.625Z,17.49
2022-09-22T10:06:10.194Z,17.23
2022-09-22T10:08:55.440Z,17.22
2022-09-22T10:11:41.977Z,17.08
2022-09-22T10:14:31.221Z,17.19
2022-09-22T10:17:21.987Z,16.88
2022-09-22T10:20:20.254Z,16.27
2022-09-22T10:23:21.145Z,16.02
2022-09-22T10:26:13.779Z,16.31
2022-09-22T10:29:20.829Z,16.82
2022-09-22T10:32:12.501Z,17.05
2022-09-22T10:34:59.617Z,17.30
2022-09-22T10:37:47.585Z,17.00
2022-09-22T10:40:39.152Z,16.83
2022-09-22T10:43:27.439Z,16.75
2022-09-22T10:46:32.419Z,16.59
2022-09-22T10:49:30.875Z,16.11
2022-09-22T10:52:44.310Z,15.75
2022-09-22T10:55:34.867Z,15.51
2022-09-22T10:58:24.785Z,15.41
2022-09-22T11:01:37.573Z,15.11
2022-09-22T11:04:51.666Z,15.03
2022-09-22T11:08:14.573Z,14.97
2022-09-22T11:11:26.556Z,14.93
2022-09-22T11:14:38.366Z,14.89
2022-09-22T11:17:32.544Z,14.83
2022-09-22T11:20:42.233Z,14.77
2022-09-22T11:23:43.991Z,14.73
2022-09-22T11:26:31.983Z,14.67
2022-09-22T11:30:10.402Z,14.62
2022-09-22T11:33:36.792Z,14.64
2022-09-22T11:36:58.910Z,14.65
2022-09-22T11:39:59.935Z,14.66
2022-09-22T11:42:52.092Z,14.67
2022-09-22T11:45:48.694Z,14.69
2022-09-22T11:48:48.156Z,14.71
2022-09-22T11:52:03.834Z,14.77
2022-09-22T11:55:28.543Z,15.09
2022-09-22T11:58:21.659Z,15.68
2022-09-22T12:01:13.463Z,15.85
2022-09-22T12:04:09.318Z,15.77
2022-09-22T12:06:56.833Z,15.57
2022-09-22T12:10:05.886Z,15.35
2022-09-22T12:12:52.832Z,15.18
2022-09-22T12:15:58.594Z,15.04
2022-09-22T12:19:05.884Z,14.97
2022-09-22T12:22:07.543Z,14.90
2022-09-22T12:24:52.872Z,14.82
2022-09-22T12:27:38.318Z,14.78
2022-09-22T12:30:23.720Z,14.75
2022-09-22T12:33:15.726Z,14.71
2022-09-22T12:36:04.814Z,14.70
2022-09-22T12:38:50.762Z,14.67
2022-09-22T12:41:48.009Z,14.64
2022-09-22T12:44:37.349Z,14.63
2022-09-22T12:47:34.022Z,14.61
2022-09-22T12:50:25.212Z,14.64
2022-09-22T12:53:22.810Z,14.68
2022-09-22T12:56:44.873Z,14.66
2022-09-22T12:59:36.124Z,14.68
2022-09-22T13:02:30.912Z,14.72
2022-09-22T13:05:28.187Z,14.77
2022-09-22T13:08:18.307Z,14.83
2022-09-22T13:11:06.535Z,14.94
2022-09-22T13:13:52.539Z,15.07
2022-09-22T13:16:37.792Z,15.27
2022-09-22T13:19:23.042Z,15.50
2022-09-22T13:22:17.680Z,15.73
2022-09-22T13:25:35.545Z,15.83
2022-09-22T13:28:23.384Z,15.93
2022-09-22T13:31:17.255Z,15.98
2022-09-22T13:34:37.142Z,16.05
2022-09-22T13:37:24.582Z,16.27
2022-09-22T13:40:11.111Z,16.49
2022-09-22T13:43:01.343Z,16.65
2022-09-22T13:45:46.794Z,16.76
2022-09-22T13:48:36.813Z,16.89
2022-09-22T13:51:22.259Z,16.97
2022-09-22T13:54:09.531Z,16.97
2022-09-22T13:56:57.544Z,16.95
2022-09-22T13:59:42.984Z,16.68
2022-09-22T14:02:31.806Z,16.50
2022-09-22T14:05:27.753Z,16.47
2022-09-22T14:08:20.410Z,16.42
2022-09-22T14:11:11.977Z,16.23
2022-09-22T14:14:02.621Z,16.09
2022-09-22T14:17:03.313Z,16.05
2022-09-22T14:20:01.017Z,16.00
2022-09-22T14:22:46.387Z,15.90
2022-09-22T14:25:33.107Z,15.87
2022-09-22T14:28:23.611Z,15.88
2022-09-22T14:31:15.405Z,15.88
2022-09-22T14:34:03.005Z,15.91
2022-09-22T14:36:50.274Z,15.91
2022-09-22T14:39:39.504Z,15.90
2022-09-22T14:42:29.122Z,15.94
2022-09-22T14:45:20.831Z,15.91
2022-09-22T14:48:33.356Z,15.88
2022-09-22T14:51:24.835Z,15.90
2022-09-22T14:54:17.110Z,15.94
2022-09-22T14:57:08.045Z,15.93
2022-09-22T15:00:15.574Z,15.87
2022-09-22T15:03:06.208Z,15.84
2022-09-22T15:05:51.907Z,15.77
2022-09-22T15:08:37.303Z,15.74
2022-09-22T15:11:50.082Z,15.68
2022-09-22T15:14:41.928Z,15.65
2022-09-22T15:17:59.988Z,15.61
2022-09-22T15:20:58.853Z,15.62
2022-09-22T15:23:47.832Z,15.60
2022-09-22T15:26:33.431Z,15.58
2022-09-22T15:29:19.256Z,15.62
2022-09-22T15:32:07.209Z,15.66
2022-09-22T15:35:05.020Z,15.66
2022-09-22T15:37:50.453Z,15.64
2022-09-22T15:40:35.845Z,15.62
2022-09-22T15:43:23.378Z,15.65
2022-09-22T15:46:29.145Z,15.62
2022-09-22T15:49:18.094Z,15.62
2022-09-22T15:52:04.846Z,15.59
2022-09-22T15:54:50.217Z,15.59
2022-09-22T15:57:35.555Z,15.57
2022-09-22T16:00:27.114Z,15.54
2022-09-22T16:03:23.896Z,15.53
2022-09-22T16:06:12.836Z,15.51
2022-09-22T16:09:02.248Z,15.49
2022-09-22T16:12:03.305Z,15.44
2022-09-22T16:14:52.074Z,15.35
2022-09-22T16:17:38.360Z,15.33
2022-09-22T16:20:23.861Z,15.26
2022-09-22T16:23:09.843Z,15.24
2022-09-22T16:25:55.679Z,15.22
2022-09-22T16:28:43.758Z,15.14
2022-09-22T16:31:29.869Z,15.08
2022-09-22T16:34:15.307Z,15.02
2022-09-22T16:37:00.745Z,15.15
2022-09-22T16:39:45.853Z,15.10
2022-09-22T16:42:31.390Z,15.02
2022-09-22T16:45:16.587Z,15.01
2022-09-22T16:48:02.050Z,14.98
2022-09-22T16:50:47.150Z,14.94
2022-09-22T16:53:32.967Z,14.87
2022-09-22T16:56:26.819Z,14.74
2022-09-22T16:59:15.224Z,14.61
2022-09-22T17:02:00.864Z,14.51
2022-09-22T17:04:46.272Z,14.42
2022-09-22T17:07:31.360Z,14.36
2022-09-22T17:10:19.179Z,14.30
2022-09-22T17:13:06.010Z,14.26
2022-09-22T17:16:18.443Z,14.20
2022-09-22T17:19:07.943Z,14.15
2022-09-22T17:21:55.302Z,14.13
2022-09-22T17:24:40.710Z,14.11
2022-09-22T17:27:26.235Z,14.05
2022-09-22T17:30:11.883Z,13.96
2022-09-22T17:32:57.330Z,13.88
2022-09-22T17:35:42.674Z,13.80
2022-09-22T17:38:34.781Z,13.72
2022-09-22T17:41:23.213Z,13.65
2022-09-22T17:44:09.179Z,13.59
2022-09-22T17:47:13.315Z,13.55
2022-09-22T17:50:31.002Z,13.45
2022-09-22T17:53:34.792Z,13.38
2022-09-22T17:56:20.450Z,13.33
2022-09-22T17:59:05.769Z,13.29
2022-09-22T18:01:53.675Z,13.22
2022-09-22T18:04:39.363Z,13.18
2022-09-22T18:07:26.521Z,13.13
2022-09-22T18:10:16.093Z,13.08
2022-09-22T18:13:02.206Z,13.04
2022-09-22T18:15:47.563Z,13.01
2022-09-22T18:18:33.147Z,12.96
2022-09-22T18:21:18.308Z,12.92
2022-09-22T18:24:03.608Z,12.88
2022-09-22T18:26:53.063Z,12.84
2022-09-22T18:29:38.324Z,12.79
2022-09-22T18:32:27.755Z,12.75
2022-09-22T18:35:13.130Z,12.70
2022-09-22T18:37:58.552Z,12.64
2022-09-22T18:40:44.201Z,12.58
2022-09-22T18:43:30.286Z,12.50
2022-09-22T18:46:22.277Z,12.47
2022-09-22T18:49:09.287Z,12.44
2022-09-22T18:51:54.509Z,12.42
2022-09-22T18:54:43.829Z,12.40
2022-09-22T18:57:29.081Z,12.37
2022-09-22T19:00:15.448Z,12.36
2022-09-22T19:03:00.735Z,12.32
2022-09-22T19:05:45.954Z,12.27
2022-09-22T19:08:31.354Z,12.21
2022-09-22T19:11:17.207Z,12.19
2022-09-22T19:14:02.296Z,12.15
2022-09-22T19:16:48.792Z,12.13
2022-09-22T19:19:36.908Z,12.10
2022-09-22T19:22:23.227Z,12.08
2022-09-22T19:25:09.486Z,12.05
2022-09-22T19:27:55.139Z,12.02
2022-09-22T19:30:40.394Z,12.00
2022-09-22T19:33:25.583Z,11.98
2022-09-22T19:36:11.216Z,11.95
2022-09-22T19:38:56.869Z,11.92
2022-09-22T19:41:47.906Z,11.91
2022-09-22T19:44:33.457Z,11.87
2022-09-22T19:47:19.934Z,11.83
2022-09-22T19:50:07.986Z,11.79
2022-09-22T19:52:53.609Z,11.76
2022-09-22T19:55:39.729Z,11.76
2022-09-22T19:58:25.414Z,11.74
2022-09-22T20:01:23.399Z,11.73
2022-09-22T20:04:19.816Z,11.74
2022-09-22T20:07:07.268Z,11.74
2022-09-22T20:09:52.562Z,11.75
2022-09-22T20:12:38.221Z,11.75
2022-09-22T20:15:24.054Z,11.75
2022-09-22T20:18:09.923Z,11.75
2022-09-22T20:20:56.887Z,11.73
2022-09-22T20:23:42.769Z,11.71
2022-09-22T20:26:28.052Z,11.69
2022-09-22T20:29:15.556Z,11.65
2022-09-22T20:32:01.151Z,11.61
2022-09-22T20:34:47.081Z,11.57
2022-09-22T20:37:32.980Z,11.53
2022-09-22T20:40:22.932Z,11.50
2022-09-22T20:43:11.877Z,11.46
2022-09-22T20:46:03.902Z,11.42
2022-09-22T20:48:49.457Z,11.39
2022-09-22T20:51:35.074Z,11.37
2022-09-22T20:54:20.562Z,11.36
2022-09-22T20:57:05.783Z,11.33
2022-09-22T20:59:51.159Z,11.33
2022-09-22T21:02:37.308Z,11.31
2022-09-22T21:05:22.499Z,11.29
2022-09-22T21:08:26.388Z,11.28
2022-09-22T21:11:13.483Z,11.24
2022-09-22T21:14:03.038Z,11.22
2022-09-22T21:16:49.519Z,11.19
2022-09-22T21:19:36.383Z,11.14
2022-09-22T21:22:21.803Z,11.11
2022-09-22T21:25:07.117Z,11.09
2022-09-22T21:27:52.398Z,11.08
2022-09-22T21:30:37.821Z,11.06
2022-09-22T21:33:23.875Z,11.01
2022-09-22T21:36:16.066Z,11.01
2022-09-22T21:39:01.563Z,10.99
2022-09-22T21:41:46.824Z,10.97
2022-09-22T21:44:32.071Z,10.95
2022-09-22T21:47:17.215Z,10.94
2022-09-22T21:50:03.053Z,10.92
2022-09-22T21:52:48.711Z,10.90
2022-09-22T21:55:33.853Z,10.86
2022-09-22T21:58:20.140Z,10.87
2022-09-22T22:01:11.091Z,10.85
2022-09-22T22:03:57.776Z,10.81
2022-09-22T22:06:45.560Z,10.78
2022-09-22T22:09:30.770Z,10.75
2022-09-22T22:12:16.528Z,10.72
2022-09-22T22:15:02.006Z,10.68
2022-09-22T22:17:48.036Z,10.67
2022-09-22T22:20:33.418Z,10.66
2022-09-22T22:23:18.678Z,10.65
2022-09-22T22:26:08.781Z,10.63
2022-09-22T22:28:53.807Z,10.63
2022-09-22T22:31:39.514Z,10.62
2022-09-22T22:34:27.607Z,10.58
2022-09-22T22:37:12.941Z,10.56
2022-09-22T22:39:58.388Z,10.56
2022-09-22T22:42:43.743Z,10.54
2022-09-22T22:45:29.312Z,10.53
2022-09-22T22:48:15.523Z,10.51
2022-09-22T22:51:08.404Z,10.46
2022-09-22T22:53:57.006Z,10.44
2022-09-22T22:56:44.312Z,10.43
2022-09-22T22:59:31.889Z,10.40
2022-09-22T23:02:17.331Z,10.39
2022-09-22T23:05:03.102Z,10.37
2022-09-22T23:07:48.348Z,10.33
2022-09-22T23:10:34.214Z,10.33
2022-09-22T23:13:19.685Z,10.33
2022-09-22T23:16:08.620Z,10.33
2022-09-22T23:18:57.458Z,10.36
2022-09-22T23:21:43.269Z,10.35
2022-09-22T23:24:28.902Z,10.36
2022-09-22T23:27:14.340Z,10.34
2022-09-22T23:29:59.817Z,10.32
2022-09-22T23:32:45.143Z,10.25
2022-09-22T23:35:30.681Z,10.22
2022-09-22T23:38:17.525Z,10.19
2022-09-22T23:41:04.065Z,10.18
2022-09-22T23:43:49.735Z,10.16
2022-09-22T23:46:35.211Z,10.12
2022-09-22T23:49:20.329Z,10.12
2022-09-22T23:52:05.802Z,10.12
2022-09-22T23:54:51.035Z,10.08
2022-09-22T23:57:36.965Z,10.04
